Time;durP1;ratioP1;P1;durP2;ratioP2;P2;SDS_P1;SDS_P2;PMS_P1;PMS_P2;Temp;Humidity;BMP_temperature;BMP_pressure;BME280_temperature;BME280_humidity;BME280_pressure;Samples;Min_cycle;Max_cycle;Signal;HPM_P1;HPM_P2
2022/11/09 00:00:55;;;;;;;4.40;1.45;;;13.20;99.90;;;;;;7403198;19;19921;-80
2022/11/09 00:03:23;;;;;;;;;;;13.20;99.90;;;;;;7409591;19;19919;-80
2022/11/09 00:05:59;;;;;;;4.10;1.35;;;13.20;99.90;;;;;;7410589;19;19918;-80
2022/11/09 00:08:31;;;;;;;4.22;1.52;;;13.30;99.90;;;;;;7406550;19;19921;-80
2022/11/09 00:11:05;;;;;;;3.33;1.48;;;13.30;99.90;;;;;;7405514;19;19924;-80
2022/11/09 00:13:37;;;;;;;4.35;1.25;;;13.30;99.90;;;;;;7409833;19;19923;-80
2022/11/09 00:16:06;;;;;;;4.40;1.27;;;13.30;99.90;;;;;;7405583;19;20004;-80
2022/11/09 00:18:36;;;;;;;6.70;0.73;;;13.20;99.90;;;;;;7409929;19;20241;-80
2022/11/09 00:21:08;;;;;;;4.60;1.60;;;13.30;99.90;;;;;;7407053;19;19922;-80
2022/11/09 00:23:40;;;;;;;4.18;1.20;;;13.40;99.90;;;;;;7405899;19;19911;-79
2022/11/09 00:26:10;;;;;;;5.40;1.50;;;13.50;99.90;;;;;;7404194;19;19938;-80
2022/11/09 00:28:40;;;;;;;2.75;0.70;;;13.60;99.90;;;;;;7410518;19;19925;-80
2022/11/09 00:31:11;;;;;;;2.70;0.55;;;13.70;99.90;;;;;;7406756;19;19918;-80
2022/11/09 00:33:41;;;;;;;4.00;1.20;;;13.70;99.90;;;;;;7405938;19;19915;-80
2022/11/09 00:36:14;;;;;;;5.03;1.17;;;13.70;99.90;;;;;;7405864;19;20336;-80
2022/11/09 00:38:49;;;;;;;4.40;1.45;;;13.80;99.90;;;;;;7406994;19;19918;-80
2022/11/09 00:41:20;;;;;;;6.38;0.82;;;13.80;99.90;;;;;;7405028;19;20352;-80
2022/11/09 00:43:49;;;;;;;2.75;1.20;;;13.70;99.90;;;;;;7407493;19;19922;-80
2022/11/09 00:46:19;;;;;;;3.28;0.60;;;13.70;99.90;;;;;;7408566;19;20038;-80
2022/11/09 00:48:48;;;;;;;2.92;1.20;;;13.70;99.90;;;;;;7405744;19;19970;-80
2022/11/09 00:51:20;;;;;;;3.15;1.17;;;13.70;99.90;;;;;;7406587;19;19954;-80
2022/11/09 00:53:53;;;;;;;4.40;0.95;;;13.60;99.90;;;;;;7405340;19;19910;-80
2022/11/09 00:56:23;;;;;;;3.65;1.40;;;13.60;99.90;;;;;;7403883;19;19953;-80
2022/11/09 00:58:55;;;;;;;3.15;1.42;;;13.60;99.90;;;;;;7408002;19;19931;-80
2022/11/09 01:01:27;;;;;;;5.53;0.65;;;13.50;99.90;;;;;;7405721;19;20352;-80
2022/11/09 01:03:56;;;;;;;5.97;1.70;;;13.50;99.90;;;;;;7405280;19;20003;-80
2022/11/09 01:06:26;;;;;;;3.97;0.90;;;13.50;99.90;;;;;;7404604;19;19998;-80
2022/11/09 01:08:59;;;;;;;5.40;1.50;;;13.50;99.90;;;;;;7407787;19;20344;-80
2022/11/09 01:11:28;;;;;;;1.95;0.73;;;13.50;99.90;;;;;;7404657;19;19919;-80
2022/11/09 01:13:57;;;;;;;3.75;1.30;;;13.50;99.90;;;;;;7404903;19;19923;-80
2022/11/09 01:16:26;;;;;;;3.38;0.70;;;13.50;99.90;;;;;;7406819;19;21014;-80
2022/11/09 01:18:55;;;;;;;5.35;0.90;;;13.50;99.90;;;;;;7406164;19;20248;-80
2022/11/09 01:21:24;;;;;;;4.90;0.80;;;13.40;99.90;;;;;;7404080;19;19925;-80
2022/11/09 01:23:53;;;;;;;5.78;1.10;;;13.30;99.90;;;;;;7404854;19;19941;-80
2022/11/09 01:26:25;;;;;;;6.05;1.42;;;13.20;99.90;;;;;;7405462;19;19918;-80
2022/11/09 01:28:54;;;;;;;4.50;1.60;;;13.20;99.90;;;;;;7407005;19;19922;-80
2022/11/09 01:31:25;;;;;;;4.75;0.63;;;13.20;99.90;;;;;;7405997;19;20340;-80
2022/11/09 01:33:54;;;;;;;4.03;1.23;;;13.10;99.90;;;;;;7404718;19;19927;-80
2022/11/09 01:36:24;;;;;;;6.75;1.55;;;13.20;99.90;;;;;;7404117;19;19996;-80
2022/11/09 01:38:53;;;;;;;4.20;1.40;;;13.20;99.90;;;;;;7405830;19;19974;-80
2022/11/09 01:41:27;;;;;;;4.88;1.23;;;13.10;99.90;;;;;;7403941;19;19922;-80
2022/11/09 01:44:11;;;;;;;4.50;1.85;;;13.10;99.90;;;;;;7404008;19;20348;-80
2022/11/09 01:46:45;;;;;;;4.35;1.45;;;13.10;99.90;;;;;;7404933;19;19922;-80
2022/11/09 01:49:20;;;;;;;4.25;0.93;;;13.10;99.90;;;;;;7406239;19;19919;-80
2022/11/09 01:51:53;;;;;;;7.22;1.42;;;13.10;99.90;;;;;;7405822;19;20359;-80
2022/11/09 01:54:27;;;;;;;4.35;1.70;;;13.00;99.90;;;;;;7408312;19;19907;-80
2022/11/09 01:57:04;;;;;;;5.32;1.55;;;13.00;99.90;;;;;;7406376;19;19910;-80
2022/11/09 01:59:37;;;;;;;3.88;1.70;;;13.00;99.90;;;;;;7406131;19;19914;-79
2022/11/09 02:02:06;;;;;;;4.10;1.30;;;13.00;99.90;;;;;;7403882;19;19929;-80
2022/11/09 02:04:41;;;;;;;4.63;1.48;;;13.10;99.90;;;;;;7406345;19;19919;-79
2022/11/09 02:07:10;;;;;;;4.95;1.63;;;13.10;99.90;;;;;;7403179;19;19947;-80
2022/11/09 02:09:45;;;;;;;5.78;1.58;;;13.10;99.90;;;;;;7406365;19;19919;-80
2022/11/09 02:12:19;;;;;;;4.30;0.77;;;13.00;99.90;;;;;;7402892;19;20294;-80
2022/11/09 02:14:51;;;;;;;6.30;1.38;;;13.10;99.90;;;;;;7405267;19;19937;-80
2022/11/09 02:17:21;;;;;;;3.78;1.50;;;13.00;99.90;;;;;;7402895;19;19911;-80
2022/11/09 02:19:49;;;;;;;4.18;1.45;;;13.00;99.90;;;;;;7404182;19;19925;-80
2022/11/09 02:22:21;;;;;;;5.95;1.17;;;12.90;99.90;;;;;;7403705;19;19914;-80
2022/11/09 02:24:50;;;;;;;2.63;0.82;;;13.00;99.90;;;;;;7408310;19;20249;-80
2022/11/09 02:27:19;;;;;;;2.13;1.30;;;13.00;99.90;;;;;;7409132;19;19930;-80
2022/11/09 02:29:50;;;;;;;5.35;1.08;;;13.00;99.90;;;;;;7411957;19;19922;-80
2022/11/09 02:32:22;;;;;;;4.10;1.30;;;13.00;99.90;;;;;;7411167;19;19926;-80
2022/11/09 02:34:50;;;;;;;2.95;0.60;;;13.00;99.90;;;;;;7408478;19;20352;-80
2022/11/09 02:37:30;;;;;;;4.57;1.13;;;13.10;99.90;;;;;;7408143;19;20363;-80
2022/11/09 02:40:00;;;;;;;5.10;0.65;;;13.10;99.90;;;;;;7412094;19;20353;-80
2022/11/09 02:42:29;;;;;;;4.28;1.33;;;13.10;99.90;;;;;;7410737;19;19914;-80
2022/11/09 02:45:00;;;;;;;3.85;1.65;;;13.10;99.90;;;;;;7410021;19;19927;-80
2022/11/09 02:47:29;;;;;;;3.88;1.27;;;13.10;99.90;;;;;;7408183;19;19934;-80
2022/11/09 02:49:58;;;;;;;7.93;1.60;;;13.10;99.90;;;;;;7411976;19;19915;-81
2022/11/09 02:52:30;;;;;;;6.75;1.25;;;13.00;99.90;;;;;;7412533;19;19918;-80
2022/11/09 02:54:59;;;;;;;5.47;1.20;;;13.00;99.90;;;;;;7407612;19;20626;-80
2022/11/09 02:57:28;;;;;;;5.63;1.85;;;13.00;99.90;;;;;;7410449;19;19926;-81
2022/11/09 02:59:57;;;;;;;5.22;0.90;;;13.00;99.90;;;;;;7411473;19;19918;-80
2022/11/09 03:02:26;;;;;;;5.43;1.40;;;13.00;99.90;;;;;;7409353;19;19919;-80
2022/11/09 03:04:55;;;;;;;6.10;1.52;;;13.00;99.90;;;;;;7408431;19;19950;-80
2022/11/09 03:07:24;;;;;;;3.35;0.70;;;13.00;99.90;;;;;;7408291;19;19915;-80
2022/11/09 03:09:55;;;;;;;4.22;0.68;;;13.00;99.90;;;;;;7410358;19;19919;-80
2022/11/09 03:12:30;;;;;;;5.95;1.67;;;12.90;99.90;;;;;;7408777;19;19943;-80
2022/11/09 03:14:59;;;;;;;3.88;1.02;;;12.90;99.90;;;;;;7407731;19;19918;-80
2022/11/09 03:17:29;;;;;;;5.13;2.03;;;12.80;99.90;;;;;;7411566;19;19922;-80
2022/11/09 03:20:01;;;;;;;3.58;1.40;;;12.90;99.90;;;;;;7406156;19;19914;-80
2022/11/09 03:22:30;;;;;;;4.10;0.98;;;12.90;99.90;;;;;;7409870;19;19919;-80
2022/11/09 03:25:01;;;;;;;4.63;1.27;;;12.80;99.90;;;;;;7406914;19;19919;-80
2022/11/09 03:27:30;;;;;;;3.47;1.23;;;12.90;99.90;;;;;;7406922;19;19922;-80
2022/11/09 03:29:59;;;;;;;6.43;1.35;;;12.90;99.90;;;;;;7411922;19;20269;-80
2022/11/09 03:32:28;;;;;;;3.30;1.15;;;12.80;99.90;;;;;;7407389;19;20348;-79
2022/11/09 03:34:57;;;;;;;5.53;1.23;;;12.90;99.90;;;;;;7407774;19;19918;-80
2022/11/09 03:37:26;;;;;;;5.20;1.48;;;12.80;99.90;;;;;;7409881;19;19929;-80
2022/11/09 03:39:55;;;;;;;5.03;0.50;;;12.80;99.90;;;;;;7410015;19;20249;-80
2022/11/09 03:42:26;;;;;;;7.53;1.65;;;12.80;99.90;;;;;;7408663;19;19926;-80
2022/11/09 03:44:55;;;;;;;3.30;1.08;;;12.80;99.90;;;;;;7407120;19;19907;-80
2022/11/09 03:47:24;;;;;;;5.53;1.15;;;12.80;99.90;;;;;;7407631;19;19930;-80
2022/11/09 03:49:53;;;;;;;4.63;1.05;;;12.80;99.90;;;;;;7407716;19;19930;-79
2022/11/09 03:52:22;;;;;;;3.10;0.75;;;12.80;99.90;;;;;;7409882;19;19929;-79
2022/11/09 03:54:51;;;;;;;5.93;1.42;;;12.80;99.90;;;;;;7406711;19;19929;-80
2022/11/09 03:57:20;;;;;;;7.15;1.40;;;12.90;99.90;;;;;;7407613;19;19933;-80
2022/11/09 03:59:52;;;;;;;7.72;0.82;;;12.80;99.90;;;;;;7408511;19;20261;-80
2022/11/09 04:02:21;;;;;;;6.93;1.52;;;12.90;99.90;;;;;;7406157;19;19930;-80
2022/11/09 04:04:49;;;;;;;4.47;0.57;;;12.90;99.90;;;;;;7406495;19;20319;-80
2022/11/09 04:07:18;;;;;;;4.63;1.27;;;12.90;99.90;;;;;;7407994;19;19923;-80
2022/11/09 04:09:47;;;;;;;4.32;0.88;;;12.90;99.90;;;;;;7409338;19;20273;-80
2022/11/09 04:12:16;;;;;;;3.67;1.35;;;12.90;99.90;;;;;;7409335;19;19933;-79
2022/11/09 04:14:45;;;;;;;5.03;1.30;;;12.80;99.90;;;;;;7406016;19;19918;-80
2022/11/09 04:17:17;;;;;;;5.47;1.13;;;12.80;99.90;;;;;;7407431;19;19918;-80
2022/11/09 04:19:46;;;;;;;5.57;1.08;;;12.80;99.90;;;;;;7407656;19;20343;-80
2022/11/09 04:22:14;;;;;;;6.50;1.85;;;12.80;99.90;;;;;;7408816;19;19982;-80
2022/11/09 04:24:43;;;;;;;5.18;1.52;;;12.70;99.90;;;;;;7405938;19;19939;-80
2022/11/09 04:27:12;;;;;;;6.72;1.17;;;12.60;99.90;;;;;;7408827;19;19926;-81
2022/11/09 04:29:41;;;;;;;4.57;1.23;;;12.50;99.90;;;;;;7407524;19;20029;-80
2022/11/09 04:32:10;;;;;;;6.70;0.82;;;12.50;99.90;;;;;;7408730;19;19935;-80
2022/11/09 04:34:42;;;;;;;7.85;0.57;;;12.50;99.90;;;;;;7408904;19;20255;-80
2022/11/09 04:37:12;;;;;;;4.72;1.83;;;12.50;99.90;;;;;;7405768;19;19919;-80
2022/11/09 04:39:40;;;;;;;5.78;2.00;;;12.50;99.90;;;;;;7408221;19;19922;-79
2022/11/09 04:42:09;;;;;;;8.63;1.30;;;12.50;99.90;;;;;;7405517;19;19918;-79
2022/11/09 04:44:38;;;;;;;4.43;1.10;;;12.60;99.90;;;;;;7405520;19;19938;-80
2022/11/09 04:47:07;;;;;;;8.38;1.90;;;12.60;99.90;;;;;;7401695;19;19930;-80
2022/11/09 04:49:36;;;;;;;8.43;1.55;;;12.50;99.90;;;;;;7405372;19;19926;-80
2022/11/09 04:52:07;;;;;;;5.90;1.27;;;12.50;99.90;;;;;;7403864;19;19919;-80
2022/11/09 04:54:36;;;;;;;3.92;0.75;;;12.50;99.90;;;;;;7403855;19;19925;-79
2022/11/09 04:57:05;;;;;;;6.32;1.50;;;12.40;99.90;;;;;;7405948;19;19923;-80
2022/11/09 04:59:34;;;;;;;7.13;1.27;;;12.40;99.90;;;;;;7406130;19;19915;-80
2022/11/09 05:02:04;;;;;;;5.40;1.20;;;12.30;99.90;;;;;;7408231;19;19918;-80
2022/11/09 05:04:32;;;;;;;10.32;0.82;;;12.30;99.90;;;;;;7404914;19;19933;-80
2022/11/09 05:07:01;;;;;;;5.43;1.05;;;12.30;99.90;;;;;;7405074;19;19923;-80
2022/11/09 05:09:33;;;;;;;4.55;0.88;;;12.40;99.90;;;;;;7407628;19;19919;-80
2022/11/09 05:12:02;;;;;;;6.03;0.90;;;12.40;99.90;;;;;;7407153;19;19919;-77
2022/11/09 05:14:31;;;;;;;5.13;1.48;;;12.50;99.90;;;;;;7404212;19;19923;-80
2022/11/09 05:17:00;;;;;;;6.22;1.52;;;12.50;99.90;;;;;;7408571;19;19922;-80
2022/11/09 05:19:29;;;;;;;9.27;1.42;;;12.60;99.90;;;;;;7404773;19;19929;-80
2022/11/09 05:23:57;;;;;;;3.33;1.40;;;12.70;99.90;;;;;;7407259;19;19915;-80
2022/11/09 05:24:47;;;;;;;4.97;1.67;;;12.70;99.90;;;;;;7404473;19;19919;-80
2022/11/09 05:27:16;;;;;;;3.92;1.38;;;12.80;99.90;;;;;;7407648;19;19923;-80
2022/11/09 05:29:45;;;;;;;5.38;0.70;;;12.80;99.90;;;;;;7404498;19;19914;-80
2022/11/09 05:32:13;;;;;;;5.32;0.70;;;12.80;99.90;;;;;;7407118;19;19918;-80
2022/11/09 05:34:42;;;;;;;4.03;1.65;;;12.80;99.90;;;;;;7407810;19;20396;-79
2022/11/09 05:37:11;;;;;;;3.92;0.70;;;12.70;99.90;;;;;;7407454;19;19925;-80
2022/11/09 05:39:40;;;;;;;4.65;1.20;;;12.80;99.90;;;;;;7405587;19;19954;-80
2022/11/09 05:42:12;;;;;;;7.68;2.10;;;12.70;99.90;;;;;;7405672;19;19990;-81
2022/11/09 05:44:40;;;;;;;3.22;1.33;;;12.70;99.90;;;;;;7401813;19;19937;-80
2022/11/09 05:47:09;;;;;;;6.95;1.77;;;12.60;99.90;;;;;;7403240;19;19922;-80
2022/11/09 05:49:38;;;;;;;6.88;1.60;;;12.50;99.90;;;;;;7404197;19;19940;-80
2022/11/09 05:52:07;;;;;;;2.50;0.75;;;12.50;99.90;;;;;;7403915;19;20339;-80
2022/11/09 05:54:36;;;;;;;6.43;0.93;;;12.50;99.90;;;;;;7406797;19;19931;-79
2022/11/09 05:57:05;;;;;;;3.75;0.50;;;12.50;99.90;;;;;;7403961;19;20243;-80
2022/11/09 05:59:37;;;;;;;4.90;0.52;;;12.50;99.90;;;;;;7404511;19;19929;-80
2022/11/09 06:02:06;;;;;;;8.40;1.85;;;12.60;99.90;;;;;;7410141;19;19942;-80
2022/11/09 06:04:35;;;;;;;4.03;1.10;;;12.70;99.90;;;;;;7408583;19;19921;-81
2022/11/09 06:07:04;;;;;;;9.30;0.68;;;12.70;99.90;;;;;;7411393;19;19974;-80
2022/11/09 06:09:33;;;;;;;5.18;1.15;;;12.70;99.90;;;;;;7413140;19;19923;-80
2022/11/09 06:12:02;;;;;;;4.07;0.60;;;12.80;99.90;;;;;;7413389;19;19911;-80
2022/11/09 06:14:31;;;;;;;5.07;0.70;;;12.80;99.90;;;;;;7409758;19;20364;-80
2022/11/09 06:17:02;;;;;;;7.00;0.60;;;12.80;99.90;;;;;;7409442;19;19918;-80
2022/11/09 06:19:31;;;;;;;5.00;0.63;;;12.80;99.90;;;;;;7410578;19;19918;-80
2022/11/09 06:22:00;;;;;;;4.93;1.00;;;12.70;99.90;;;;;;7410311;19;19914;-80
2022/11/09 06:24:29;;;;;;;6.55;1.00;;;12.80;99.90;;;;;;7407445;19;19927;-80
2022/11/09 06:26:59;;;;;;;3.83;0.30;;;12.70;99.90;;;;;;7413532;19;19922;-80
2022/11/09 06:29:28;;;;;;;7.30;0.60;;;12.70;99.90;;;;;;7409653;19;19935;-80
2022/11/09 06:31:57;;;;;;;6.03;0.70;;;12.70;99.90;;;;;;7409910;19;19946;-80
2022/11/09 06:34:29;;;;;;;6.63;0.57;;;12.70;99.90;;;;;;7413417;19;19986;-80
2022/11/09 06:36:58;;;;;;;2.85;1.05;;;12.70;99.90;;;;;;7405802;19;20364;-80
2022/11/09 06:39:27;;;;;;;5.70;0.80;;;12.70;99.90;;;;;;7403739;19;20350;-81
2022/11/09 06:41:56;;;;;;;5.28;1.67;;;12.70;99.90;;;;;;7400532;19;20048;-83
2022/11/09 06:44:24;;;;;;;55.88;4.93;;;12.60;99.90;;;;;;7405330;19;19922;-80
2022/11/09 06:46:54;;;;;;;354.27;27.95;;;12.50;99.90;;;;;;7410613;19;19915;-80
2022/11/09 06:49:22;;;;;;;12.85;3.10;;;12.40;99.90;;;;;;7407653;19;19978;-79
2022/11/09 06:51:54;;;;;;;4.75;0.82;;;12.40;99.90;;;;;;7408979;19;20020;-80
2022/11/09 06:54:23;;;;;;;5.05;0.85;;;12.40;99.90;;;;;;7406231;19;19919;-78
2022/11/09 06:56:52;;;;;;;6.53;1.83;;;12.40;99.90;;;;;;7405800;19;19925;-82
2022/11/09 06:59:21;;;;;;;10.98;0.88;;;12.40;99.90;;;;;;7409004;19;19947;-79
2022/11/09 07:01:50;;;;;;;5.28;1.88;;;12.40;99.90;;;;;;7410884;19;19918;-80
2022/11/09 07:04:19;;;;;;;4.63;1.30;;;12.30;99.90;;;;;;7405729;19;19986;-80
2022/11/09 07:06:49;;;;;;;6.13;1.00;;;12.40;99.90;;;;;;7410573;19;19946;-80
2022/11/09 07:09:20;;;;;;;7.60;1.30;;;12.40;99.90;;;;;;7411315;19;19934;-80
2022/11/09 07:11:50;;;;;;;4.80;1.17;;;12.50;99.90;;;;;;7407303;19;19922;-80
2022/11/09 07:14:19;;;;;;;3.92;1.17;;;12.50;99.90;;;;;;7408257;19;19914;-79
2022/11/09 07:16:48;;;;;;;3.95;0.50;;;12.60;99.90;;;;;;7409426;19;19987;-79
2022/11/09 07:19:17;;;;;;;5.35;0.55;;;12.60;99.90;;;;;;7405170;19;19929;-78
2022/11/09 07:21:46;;;;;;;3.45;0.85;;;12.70;99.90;;;;;;7407765;19;19918;-78
2022/11/09 07:24:16;;;;;;;;;;;12.80;99.90;;;;;;7408026;19;19918;-78
2022/11/09 07:26:48;;;;;;;;;;;12.80;99.90;;;;;;7411657;19;19915;-77
2022/11/09 07:29:18;;;;;;;4.25;1.23;;;12.90;99.90;;;;;;7411576;19;19926;-77
2022/11/09 07:31:47;;;;;;;5.38;0.63;;;12.90;99.90;;;;;;7406140;19;19982;-77
2022/11/09 07:34:16;;;;;;;6.75;1.17;;;13.00;99.90;;;;;;7409154;19;19914;-77
2022/11/09 07:36:44;;;;;;;6.22;1.33;;;13.00;99.90;;;;;;7406708;19;20338;-77
2022/11/09 07:39:13;;;;;;;8.52;0.70;;;13.00;99.90;;;;;;7407514;19;19919;-78
2022/11/09 07:41:42;;;;;;;2.08;0.47;;;13.00;99.90;;;;;;7407634;19;20263;-77
2022/11/09 07:44:17;;;;;;;6.00;0.43;;;13.00;99.90;;;;;;7406003;19;20288;-78
2022/11/09 07:46:45;;;;;;;6.75;1.42;;;13.10;99.90;;;;;;7408586;19;19910;-78
2022/11/09 07:49:15;;;;;;;4.63;0.80;;;13.20;99.90;;;;;;7406809;19;19918;-78
2022/11/09 07:51:45;;;;;;;8.10;1.15;;;13.10;99.90;;;;;;7403455;19;19922;-78
2022/11/09 07:54:13;;;;;;;;;;;13.10;99.90;;;;;;7409317;19;19918;-78
2022/11/09 07:56:42;;;;;;;4.03;0.50;;;13.10;99.90;;;;;;7402086;19;19914;-77
2022/11/09 07:59:14;;;;;;;5.22;0.88;;;13.10;99.90;;;;;;7406657;19;20337;-78
2022/11/09 08:01:43;;;;;;;4.90;0.50;;;13.20;99.90;;;;;;7406669;19;20307;-78
2022/11/09 08:04:11;;;;;;;3.80;0.80;;;13.20;99.90;;;;;;7405817;19;19921;-77
2022/11/09 08:06:41;;;;;;;7.38;0.63;;;13.30;99.90;;;;;;7405540;19;19929;-77
2022/11/09 08:09:10;;;;;;;5.55;0.38;;;13.40;99.90;;;;;;7407590;19;19927;-77
2022/11/09 08:11:39;;;;;;;4.05;0.50;;;13.40;99.90;;;;;;7408517;19;19926;-78
2022/11/09 08:14:08;;;;;;;4.40;1.38;;;13.40;99.90;;;;;;7408208;19;20340;-78
2022/11/09 08:16:39;;;;;;;6.50;0.55;;;13.50;99.90;;;;;;7406718;19;19922;-78
2022/11/09 08:19:09;;;;;;;3.75;0.52;;;13.60;99.90;;;;;;7405993;19;19915;-78
2022/11/09 08:21:38;;;;;;;6.20;0.60;;;13.70;99.90;;;;;;7408939;19;20207;-77
2022/11/09 08:24:07;;;;;;;4.40;0.98;;;13.70;99.90;;;;;;7403684;19;19925;-78
2022/11/09 08:26:36;;;;;;;9.65;1.95;;;13.80;99.90;;;;;;7405866;19;19974;-78
2022/11/09 08:29:05;;;;;;;6.30;1.55;;;13.80;99.90;;;;;;7404186;19;20317;-78
2022/11/09 08:31:34;;;;;;;5.85;1.23;;;13.80;99.90;;;;;;7406016;19;19926;-77
2022/11/09 08:34:06;;;;;;;8.02;1.25;;;13.90;99.90;;;;;;7404204;19;19926;-77
2022/11/09 08:36:35;;;;;;;7.38;1.98;;;13.90;99.90;;;;;;7408256;19;19922;-78
2022/11/09 08:39:03;;;;;;;3.78;1.13;;;13.90;99.90;;;;;;7410039;19;19919;-77
2022/11/09 08:41:32;;;;;;;3.72;0.40;;;13.90;99.90;;;;;;7405580;19;19923;-78
2022/11/09 08:44:01;;;;;;;5.30;1.48;;;13.90;99.90;;;;;;7406006;19;19922;-78
2022/11/09 08:46:30;;;;;;;5.30;1.48;;;14.00;99.90;;;;;;7405333;19;19918;-77
2022/11/09 08:48:59;;;;;;;7.20;0.73;;;13.90;99.90;;;;;;7402072;19;19922;-78
2022/11/09 08:51:31;;;;;;;6.82;1.20;;;14.00;99.90;;;;;;7401094;19;19917;-78
2022/11/09 08:53:59;;;;;;;9.68;1.80;;;14.10;99.90;;;;;;7406383;19;19921;-78
2022/11/09 08:56:28;;;;;;;6.18;0.80;;;14.10;99.90;;;;;;7403339;19;19915;-78
2022/11/09 08:58:57;;;;;;;7.22;1.70;;;14.00;99.90;;;;;;7405578;19;19915;-77
2022/11/09 09:01:26;;;;;;;7.60;1.23;;;14.10;99.90;;;;;;7405500;19;19923;-77
2022/11/09 09:03:55;;;;;;;5.85;1.50;;;14.10;99.90;;;;;;7404627;19;19942;-77
2022/11/09 09:06:24;;;;;;;4.82;1.45;;;14.20;99.90;;;;;;7404788;19;19927;-77
2022/11/09 09:08:56;;;;;;;7.53;1.58;;;14.20;99.90;;;;;;7409081;19;20337;-78
2022/11/09 09:11:28;;;;;;;2.05;0.93;;;14.30;99.90;;;;;;7403524;19;20337;-78
2022/11/09 09:13:57;;;;;;;6.90;1.25;;;14.40;99.90;;;;;;7404834;19;19923;-78
2022/11/09 09:16:26;;;;;;;4.82;2.75;;;14.40;99.90;;;;;;7404545;19;19925;-77
2022/11/09 09:18:55;;;;;;;8.13;1.25;;;14.40;99.90;;;;;;7403315;19;19941;-78
2022/11/09 09:21:23;;;;;;;4.97;1.38;;;14.40;99.90;;;;;;7404804;19;19923;-77
2022/11/09 09:23:53;;;;;;;2.67;1.10;;;14.40;99.90;;;;;;7406462;19;19926;-78
2022/11/09 09:26:24;;;;;;;7.43;0.63;;;14.50;99.90;;;;;;7404025;19;19982;-78
2022/11/09 09:28:53;;;;;;;7.22;0.73;;;14.60;99.90;;;;;;7404259;19;20441;-78
2022/11/09 09:31:23;;;;;;;7.22;0.40;;;14.70;99.90;;;;;;7403737;19;20253;-78
2022/11/09 09:33:52;;;;;;;6.07;0.88;;;14.70;99.90;;;;;;7403684;19;20233;-77
2022/11/09 09:36:22;;;;;;;5.13;0.68;;;14.80;99.90;;;;;;7404845;19;19919;-78
2022/11/09 09:38:52;;;;;;;6.63;1.70;;;14.70;99.90;;;;;;7404231;19;19914;-77
2022/11/09 09:41:32;;;;;;;10.05;1.85;;;14.80;99.90;;;;;;7404046;19;19970;-78
2022/11/09 09:44:08;;;;;;;4.50;1.17;;;14.90;99.90;;;;;;7403927;19;19926;-77
2022/11/09 09:46:42;;;;;;;7.25;1.27;;;14.90;99.90;;;;;;7404647;19;19918;-78
2022/11/09 09:49:18;;;;;;;5.30;0.63;;;14.90;99.90;;;;;;7402923;19;20248;-78
2022/11/09 09:51:53;;;;;;;7.20;1.40;;;15.10;99.90;;;;;;7403798;19;20594;-78
2022/11/09 09:54:26;;;;;;;6.65;0.88;;;15.10;99.90;;;;;;7403220;19;19970;-78
2022/11/09 09:57:04;;;;;;;6.28;0.90;;;15.10;99.90;;;;;;7403310;19;19962;-78
2022/11/09 09:59:39;;;;;;;5.78;1.63;;;15.00;99.90;;;;;;7405493;19;19914;-78
2022/11/09 10:02:17;;;;;;;8.13;2.03;;;15.00;99.90;;;;;;7403306;19;19918;-77
2022/11/09 10:04:46;;;;;;;7.32;1.85;;;15.00;99.90;;;;;;7402321;19;19985;-78
2022/11/09 10:07:20;;;;;;;8.15;0.95;;;15.10;99.90;;;;;;7407388;19;19929;-78
2022/11/09 10:10:22;;;;;;;7.18;0.98;;;15.10;99.90;;;;;;7402885;19;20275;-77
2022/11/09 10:13:16;;;;;;;4.88;0.40;;;15.10;99.90;;;;;;7400786;19;19939;-78
2022/11/09 10:15:51;;;;;;;9.82;0.90;;;15.10;99.90;;;;;;7402869;19;19911;-78
2022/11/09 10:18:31;;;;;;;4.97;1.02;;;15.10;99.90;;;;;;7402715;19;20298;-77
2022/11/09 10:21:13;;;;;;;5.45;1.48;;;15.10;99.90;;;;;;7402521;19;19914;-78
2022/11/09 10:23:50;;;;;;;5.43;0.77;;;15.00;99.90;;;;;;7402667;19;19926;-77
2022/11/09 10:26:23;;;;;;;8.40;1.25;;;15.00;99.90;;;;;;7400675;19;19915;-78
2022/11/09 10:29:01;;;;;;;3.75;1.45;;;15.00;99.90;;;;;;7404383;19;19915;-78
2022/11/09 10:31:35;;;;;;;6.65;1.00;;;15.20;99.90;;;;;;7402713;19;19919;-78
2022/11/09 10:34:19;;;;;;;3.28;0.60;;;15.20;99.90;;;;;;7402025;19;19925;-78
2022/11/09 10:36:54;;;;;;;3.03;0.40;;;15.30;99.90;;;;;;7406637;19;20242;-78
2022/11/09 10:39:26;;;;;;;3.80;0.90;;;15.50;99.90;;;;;;7402236;19;20310;-78
2022/11/09 10:41:55;;;;;;;7.57;1.98;;;15.70;99.90;;;;;;7401992;19;19911;-78
2022/11/09 10:44:27;;;;;;;2.65;0.90;;;15.70;99.90;;;;;;7404562;19;20367;-78
2022/11/09 10:47:11;;;;;;;7.13;2.25;;;15.80;99.90;;;;;;7405533;19;19922;-77
2022/11/09 10:49:41;;;;;;;3.15;1.27;;;15.60;99.90;;;;;;7406783;19;19925;-78
2022/11/09 10:52:38;;;;;;;7.75;2.50;;;15.40;99.90;;;;;;7408724;19;19919;-78
2022/11/09 10:55:26;;;;;;;4.57;2.03;;;15.30;99.90;;;;;;7408076;19;19915;-78
2022/11/09 10:58:01;;;;;;;7.50;1.42;;;15.30;99.90;;;;;;7409270;19;19923;-78
2022/11/09 11:00:32;;;;;;;8.18;0.93;;;15.30;99.90;;;;;;7408563;19;20260;-78
2022/11/09 11:03:13;;;;;;;5.47;1.42;;;15.40;99.90;;;;;;7408436;19;19926;-78
2022/11/09 11:05:42;;;;;;;7.75;2.08;;;15.40;99.90;;;;;;7406341;19;19922;-78
2022/11/09 11:08:27;;;;;;;5.10;1.38;;;15.30;99.90;;;;;;7408035;19;19924;-78
2022/11/09 11:11:20;;;;;;;5.47;1.90;;;15.20;99.90;;;;;;7410004;19;20340;-78
2022/11/09 11:13:51;;;;;;;2.75;0.93;;;15.20;99.90;;;;;;7408224;19;20328;-81
2022/11/09 11:16:40;;;;;;;6.03;1.40;;;15.30;99.90;;;;;;7408421;19;20427;-81
2022/11/09 11:19:28;;;;;;;4.43;1.10;;;15.40;99.90;;;;;;7408559;19;19911;-82
2022/11/09 11:22:22;;;;;;;6.07;1.00;;;15.40;99.90;;;;;;7408078;19;19918;-82
2022/11/09 11:24:57;;;;;;;6.80;1.83;;;15.40;99.90;;;;;;7406751;19;19910;-81
2022/11/09 11:27:31;;;;;;;5.47;1.23;;;15.40;99.90;;;;;;7407899;19;19918;-82
2022/11/09 11:30:07;;;;;;;3.85;1.13;;;15.40;99.90;;;;;;7407919;19;20325;-83
2022/11/09 11:32:38;;;;;;;8.98;1.67;;;15.40;99.90;;;;;;7406809;19;19932;-78
2022/11/09 11:35:15;;;;;;;3.65;0.93;;;15.40;99.90;;;;;;7408783;19;19926;-80
2022/11/09 11:37:55;;;;;;;7.22;1.30;;;15.40;99.90;;;;;;7407531;19;19923;-82
2022/11/09 11:40:31;;;;;;;11.82;1.63;;;15.50;99.90;;;;;;7407930;19;19943;-74
2022/11/09 11:43:17;;;;;;;;;;;15.40;99.90;;;;;;7414573;19;19930;-80
2022/11/09 11:45:53;;;;;;;4.72;1.05;;;15.50;99.90;;;;;;7405762;19;19921;-81
2022/11/09 11:48:51;;;;;;;4.60;0.93;;;15.50;99.90;;;;;;7407668;19;19922;-81
2022/11/09 11:51:24;;;;;;;6.20;1.40;;;15.60;99.90;;;;;;7410334;19;19915;-81
2022/11/09 11:54:06;;;;;;;8.90;1.23;;;15.50;99.90;;;;;;7409190;19;19918;-81
2022/11/09 11:56:42;;;;;;;6.82;0.98;;;15.50;99.90;;;;;;7405154;19;19918;-82
2022/11/09 11:59:28;;;;;;;7.15;1.52;;;15.60;99.90;;;;;;7406848;19;19974;-82
2022/11/09 12:02:23;;;;;;;6.75;2.05;;;15.60;99.90;;;;;;7409276;19;19922;-79
2022/11/09 12:05:21;;;;;;;5.03;1.67;;;15.70;99.90;;;;;;7407560;19;19919;-79
2022/11/09 12:07:58;;;;;;;7.53;1.30;;;15.70;99.90;;;;;;7408802;19;20497;-79
2022/11/09 12:10:40;;;;;;;4.97;1.35;;;15.70;99.90;;;;;;7406743;19;19926;-79
2022/11/09 12:13:18;;;;;;;3.53;1.48;;;15.60;99.90;;;;;;7406916;19;19918;-79
2022/11/09 12:15:57;;;;;;;7.95;1.55;;;15.70;99.90;;;;;;7405559;19;19922;-79
2022/11/09 12:18:41;;;;;;;8.73;0.70;;;15.50;99.90;;;;;;7408200;19;19926;-79
2022/11/09 12:21:18;;;;;;;4.60;1.50;;;15.50;99.90;;;;;;7407992;19;20359;-79
2022/11/09 12:24:07;;;;;;;5.90;1.38;;;15.60;99.90;;;;;;7404037;19;19925;-78
2022/11/09 12:26:58;;;;;;;4.85;1.80;;;15.70;99.90;;;;;;7403876;19;19926;-79
2022/11/09 12:29:34;;;;;;;5.68;1.27;;;15.60;99.90;;;;;;7406098;19;19914;-79
2022/11/09 12:32:07;;;;;;;;;;;15.70;99.90;;;;;;7409642;19;19928;-79
2022/11/09 12:34:43;;;;;;;4.05;1.17;;;15.60;99.90;;;;;;7407932;19;19984;-79
2022/11/09 12:37:16;;;;;;;4.50;0.98;;;15.60;99.90;;;;;;7405877;19;20310;-79
2022/11/09 12:39:48;;;;;;;4.85;1.10;;;15.50;99.90;;;;;;7409117;19;19928;-79
2022/11/09 12:42:28;;;;;;;4.65;0.50;;;15.50;99.90;;;;;;7409390;19;20307;-79
2022/11/09 12:45:04;;;;;;;2.70;0.40;;;15.40;99.90;;;;;;7406688;19;19919;-79
2022/11/09 12:47:38;;;;;;;9.13;1.55;;;15.30;99.90;;;;;;7408445;19;19922;-80
2022/11/09 12:50:13;;;;;;;5.13;1.40;;;15.30;99.90;;;;;;7405996;19;19927;-79
2022/11/09 12:52:46;;;;;;;6.07;0.77;;;15.40;99.90;;;;;;7406242;19;20254;-80
2022/11/09 12:55:17;;;;;;;5.40;1.98;;;15.40;99.90;;;;;;7404995;19;19925;-80
2022/11/09 12:57:48;;;;;;;6.85;1.23;;;15.30;99.90;;;;;;7405567;19;19925;-79
2022/11/09 13:00:48;;;;;;;8.57;0.98;;;15.20;99.90;;;;;;7405482;19;19929;-79
2022/11/09 13:03:23;;;;;;;5.75;1.25;;;15.10;99.90;;;;;;7406639;19;19915;-80
2022/11/09 13:06:12;;;;;;;8.73;1.73;;;15.10;99.90;;;;;;7405824;19;20348;-79
2022/11/09 13:08:48;;;;;;;4.53;1.42;;;15.20;99.90;;;;;;7405426;19;19942;-79
2022/11/09 13:11:23;;;;;;;7.25;2.20;;;15.20;99.90;;;;;;7404212;19;19922;-80
2022/11/09 13:13:52;;;;;;;6.72;1.55;;;15.20;99.90;;;;;;7405743;19;19932;-79